Time;durP1;ratioP1;P1;durP2;ratioP2;P2;SDS_P1;SDS_P2;PMS_P1;PMS_P2;Temp;Humidity;BMP_temperature;BMP_pressure;BME280_temperature;BME280_humidity;BME280_pressure;Samples;Min_cycle;Max_cycle;Signal;HPM_P1;HPM_P2
2023/12/05 00:00:36;;;;;;;14.90;7.17;;;;;;;;;;5116752;28;20019;-54
2023/12/05 00:03:02;;;;;;;11.33;7.13;;;;;;;;;;5116931;28;20098;-53
2023/12/05 00:05:28;;;;;;;11.83;7.23;;;;;;;;;;5116752;28;20046;-55
2023/12/05 00:07:55;;;;;;;9.57;7.40;;;;;;;;;;5117406;28;20035;-56
2023/12/05 00:10:21;;;;;;;8.80;7.67;;;;;;;;;;5116772;28;20031;-56
2023/12/05 00:12:47;;;;;;;8.07;6.57;;;;;;;;;;5117066;28;20449;-54
2023/12/05 00:15:13;;;;;;;11.90;6.77;;;;;;;;;;5116522;28;20024;-53
2023/12/05 00:17:39;;;;;;;7.90;7.03;;;;;;;;;;5116089;28;20032;-53
2023/12/05 00:20:05;;;;;;;9.90;6.93;;;;;;;;;;5116686;28;20024;-55
2023/12/05 00:22:32;;;;;;;8.23;6.57;;;;;;;;;;5116359;28;20063;-55
2023/12/05 00:24:57;;;;;;;11.67;6.63;;;;;;;;;;5116236;28;20024;-54
2023/12/05 00:27:23;;;;;;;6.80;5.70;;;;;;;;;;5116518;28;20024;-54
2023/12/05 00:29:49;;;;;;;8.10;5.77;;;;;;;;;;5117001;28;20435;-53
2023/12/05 00:32:16;;;;;;;7.07;5.17;;;;;;;;;;5115828;28;20465;-55
2023/12/05 00:34:45;;;;;;;8.57;5.63;;;;;;;;;;5116421;28;20027;-53
2023/12/05 00:37:11;;;;;;;6.80;5.00;;;;;;;;;;5116130;28;20505;-54
2023/12/05 00:39:37;;;;;;;10.13;5.30;;;;;;;;;;5115957;28;20036;-55
2023/12/05 00:42:03;;;;;;;6.50;5.07;;;;;;;;;;5116316;28;20051;-55
2023/12/05 00:44:32;;;;;;;8.07;6.13;;;;;;;;;;5115919;28;20058;-53
2023/12/05 00:47:03;;;;;;;7.50;6.70;;;;;;;;;;5116471;28;20035;-54
2023/12/05 00:49:29;;;;;;;7.35;5.32;;;;;;;;;;5116462;28;20043;-56
2023/12/05 00:51:55;;;;;;;7.93;5.57;;;;;;;;;;5115670;28;20377;-56
2023/12/05 00:54:20;;;;;;;6.57;5.53;;;;;;;;;;5115699;28;20032;-56
2023/12/05 00:56:46;;;;;;;7.70;6.00;;;;;;;;;;5116287;28;20401;-52
2023/12/05 00:59:12;;;;;;;6.68;5.95;;;;;;;;;;5115513;28;20039;-55
2023/12/05 01:01:38;;;;;;;6.93;5.27;;;;;;;;;;5115299;28;20027;-55
2023/12/05 01:04:04;;;;;;;10.03;6.63;;;;;;;;;;5115222;28;20034;-54
2023/12/05 01:06:30;;;;;;;11.40;5.93;;;;;;;;;;5115435;28;20065;-54
2023/12/05 01:08:56;;;;;;;6.73;5.37;;;;;;;;;;5114807;28;20034;-57
2023/12/05 01:11:23;;;;;;;6.67;5.53;;;;;;;;;;5115007;28;20019;-56
2023/12/05 01:13:49;;;;;;;6.30;4.67;;;;;;;;;;5115346;28;20027;-55
2023/12/05 01:16:14;;;;;;;8.13;4.53;;;;;;;;;;5115232;28;20028;-54
2023/12/05 01:18:40;;;;;;;7.27;5.43;;;;;;;;;;5115398;28;20035;-55
2023/12/05 01:21:06;;;;;;;6.03;4.27;;;;;;;;;;5115182;28;20105;-57
2023/12/05 01:23:32;;;;;;;6.20;4.50;;;;;;;;;;5115400;28;20051;-55
2023/12/05 01:25:58;;;;;;;8.63;4.87;;;;;;;;;;5114735;28;20020;-54
2023/12/05 01:28:24;;;;;;;7.67;3.87;;;;;;;;;;5115324;28;20038;-55
2023/12/05 01:30:50;;;;;;;3.67;2.67;;;;;;;;;;5115514;28;20055;-56
2023/12/05 01:33:16;;;;;;;3.73;2.47;;;;;;;;;;5115743;28;20019;-58
2023/12/05 01:35:42;;;;;;;5.23;3.00;;;;;;;;;;5114943;28;20450;-56
2023/12/05 01:38:08;;;;;;;5.43;3.17;;;;;;;;;;5115570;28;20437;-56
2023/12/05 01:40:34;;;;;;;2.83;2.23;;;;;;;;;;5115179;28;20023;-57
2023/12/05 01:43:00;;;;;;;4.78;2.67;;;;;;;;;;5115268;28;20035;-58
2023/12/05 01:45:26;;;;;;;3.43;2.23;;;;;;;;;;5115039;28;20027;-55
2023/12/05 01:47:52;;;;;;;4.40;2.43;;;;;;;;;;5114657;28;20027;-53
2023/12/05 01:50:28;;;;;;;4.60;2.90;;;;;;;;;;5114663;28;20024;-57
2023/12/05 01:52:56;;;;;;;4.10;2.53;;;;;;;;;;5114621;28;20024;-55
2023/12/05 01:55:24;;;;;;;3.30;2.40;;;;;;;;;;5114447;28;20047;-57
2023/12/05 01:57:50;;;;;;;3.37;2.33;;;;;;;;;;5114961;28;20040;-58
2023/12/05 02:00:16;;;;;;;4.00;2.80;;;;;;;;;;5113555;28;20039;-56
2023/12/05 02:02:42;;;;;;;3.67;2.87;;;;;;;;;;5114478;28;20035;-58
2023/12/05 02:05:09;;;;;;;6.55;3.22;;;;;;;;;;5115256;28;20020;-55
2023/12/05 02:07:36;;;;;;;3.28;2.33;;;;;;;;;;5114493;28;20031;-56
2023/12/05 02:10:02;;;;;;;3.95;2.95;;;;;;;;;;5114574;28;20034;-58
2023/12/05 02:12:28;;;;;;;4.38;2.92;;;;;;;;;;5113964;28;20122;-56
2023/12/05 02:14:54;;;;;;;3.73;3.00;;;;;;;;;;5114282;28;20106;-57
2023/12/05 02:17:24;;;;;;;4.40;3.50;;;;;;;;;;5114501;28;20024;-56
2023/12/05 02:19:59;;;;;;;5.63;3.22;;;;;;;;;;5114872;28;20028;-57
2023/12/05 02:22:31;;;;;;;6.53;3.55;;;;;;;;;;5114834;28;20041;-57
2023/12/05 02:25:11;;;;;;;4.90;3.60;;;;;;;;;;5115067;28;20407;-57
2023/12/05 02:27:41;;;;;;;5.77;3.40;;;;;;;;;;5114789;28;20118;-56
2023/12/05 02:30:09;;;;;;;5.03;4.30;;;;;;;;;;5114147;28;20019;-58
2023/12/05 02:32:35;;;;;;;3.70;2.90;;;;;;;;;;5113744;28;20469;-56
2023/12/05 02:35:02;;;;;;;5.53;3.73;;;;;;;;;;5114173;28;20031;-56
2023/12/05 02:37:50;;;;;;;3.83;3.03;;;;;;;;;;5114859;28;20039;-57
2023/12/05 02:40:22;;;;;;;4.80;3.30;;;;;;;;;;5114106;28;20020;-58
2023/12/05 02:42:49;;;;;;;4.43;3.60;;;;;;;;;;5114230;28;20023;-58
2023/12/05 02:45:21;;;;;;;4.63;3.33;;;;;;;;;;5114000;28;20034;-56
2023/12/05 02:47:49;;;;;;;4.27;3.73;;;;;;;;;;5114571;28;20106;-54
2023/12/05 02:50:18;;;;;;;5.53;3.70;;;;;;;;;;5114478;28;20032;-56
2023/12/05 02:52:45;;;;;;;6.43;4.53;;;;;;;;;;5113795;28;20020;-55
2023/12/05 02:55:11;;;;;;;5.77;3.60;;;;;;;;;;5113726;28;20043;-57
2023/12/05 02:57:36;;;;;;;4.77;3.20;;;;;;;;;;5114048;28;20016;-57
2023/12/05 03:00:06;;;;;;;5.13;3.97;;;;;;;;;;5114146;28;20468;-54
2023/12/05 03:02:32;;;;;;;4.23;3.17;;;;;;;;;;5113868;28;20028;-54
2023/12/05 03:04:58;;;;;;;6.00;3.20;;;;;;;;;;5113832;28;20027;-56
2023/12/05 03:07:24;;;;;;;4.20;3.70;;;;;;;;;;5114341;28;20193;-58
2023/12/05 03:09:49;;;;;;;5.53;3.47;;;;;;;;;;5114585;28;20417;-53
2023/12/05 03:12:15;;;;;;;3.57;2.70;;;;;;;;;;5113428;28;20058;-57
2023/12/05 03:14:41;;;;;;;5.23;3.63;;;;;;;;;;5113680;28;20054;-56
2023/12/05 03:17:07;;;;;;;4.83;3.67;;;;;;;;;;5114568;28;20055;-56
2023/12/05 03:19:33;;;;;;;4.57;3.23;;;;;;;;;;5113638;28;20477;-57
2023/12/05 03:21:59;;;;;;;3.93;3.30;;;;;;;;;;5113649;28;20110;-54
2023/12/05 03:24:25;;;;;;;4.27;3.23;;;;;;;;;;5113923;28;20059;-57
2023/12/05 03:26:51;;;;;;;5.20;3.33;;;;;;;;;;5114170;28;20433;-55
2023/12/05 03:29:17;;;;;;;4.20;3.00;;;;;;;;;;5113533;28;20024;-55
2023/12/05 03:31:43;;;;;;;3.80;2.83;;;;;;;;;;5113566;28;20530;-56
2023/12/05 03:34:10;;;;;;;3.97;3.50;;;;;;;;;;5117727;28;20358;-53
2023/12/05 03:36:36;;;;;;;3.93;2.23;;;;;;;;;;5116896;28;20042;-57
2023/12/05 03:39:02;;;;;;;3.40;2.20;;;;;;;;;;5117135;28;20028;-56
2023/12/05 03:41:28;;;;;;;3.37;2.23;;;;;;;;;;5116850;28;20461;-57
2023/12/05 03:43:53;;;;;;;2.67;1.87;;;;;;;;;;5117063;28;20034;-54
2023/12/05 03:46:19;;;;;;;7.37;3.13;;;;;;;;;;5117325;28;20034;-57
2023/12/05 03:48:45;;;;;;;4.40;2.63;;;;;;;;;;5099562;28;20023;-53
2023/12/05 03:51:11;;;;;;;4.70;2.93;;;;;;;;;;5116860;28;20102;-54
2023/12/05 03:53:37;;;;;;;3.97;2.90;;;;;;;;;;5116949;28;20024;-53
2023/12/05 03:56:03;;;;;;;2.77;2.07;;;;;;;;;;5116846;28;20150;-54
2023/12/05 03:58:29;;;;;;;3.60;2.40;;;;;;;;;;5117338;28;20039;-55
2023/12/05 04:00:55;;;;;;;5.63;2.70;;;;;;;;;;5116697;28;20016;-54
2023/12/05 04:03:21;;;;;;;4.40;2.87;;;;;;;;;;5116731;28;20350;-50
2023/12/05 04:05:47;;;;;;;4.27;2.80;;;;;;;;;;5116648;28;20035;-54
2023/12/05 04:08:13;;;;;;;5.37;3.37;;;;;;;;;;5117223;28;20038;-54
2023/12/05 04:10:39;;;;;;;4.63;2.73;;;;;;;;;;5117098;28;20027;-55
2023/12/05 04:13:05;;;;;;;5.20;3.47;;;;;;;;;;5116616;28;20024;-56
2023/12/05 04:15:31;;;;;;;4.67;2.97;;;;;;;;;;5116814;28;20036;-54
2023/12/05 04:17:56;;;;;;;4.37;3.17;;;;;;;;;;5116956;28;20526;-55
2023/12/05 04:20:22;;;;;;;5.30;3.50;;;;;;;;;;5116179;28;20453;-51
2023/12/05 04:22:48;;;;;;;4.57;3.10;;;;;;;;;;5116685;28;20024;-52
2023/12/05 04:25:16;;;;;;;5.20;3.10;;;;;;;;;;5116201;28;20033;-54
2023/12/05 04:27:41;;;;;;;3.80;2.67;;;;;;;;;;5116807;28;20019;-51
2023/12/05 04:30:08;;;;;;;4.27;2.80;;;;;;;;;;5116505;28;20449;-55
2023/12/05 04:32:33;;;;;;;4.77;3.00;;;;;;;;;;5115302;28;20126;-53
2023/12/05 04:34:59;;;;;;;5.20;3.27;;;;;;;;;;5116100;28;20492;-53
2023/12/05 04:37:25;;;;;;;5.10;3.10;;;;;;;;;;5116271;28;20461;-52
2023/12/05 04:39:51;;;;;;;4.33;2.60;;;;;;;;;;5115751;28;20024;-53
2023/12/05 04:42:17;;;;;;;4.90;2.43;;;;;;;;;;5116505;28;20072;-53
2023/12/05 04:44:43;;;;;;;3.53;3.00;;;;;;;;;;5115137;28;20027;-55
2023/12/05 04:47:09;;;;;;;4.83;2.97;;;;;;;;;;5116506;28;20012;-55
2023/12/05 04:49:35;;;;;;;4.50;2.90;;;;;;;;;;5115891;28;20028;-53
2023/12/05 04:52:01;;;;;;;4.50;2.73;;;;;;;;;;5115720;28;20111;-54
2023/12/05 04:54:27;;;;;;;3.97;2.90;;;;;;;;;;5115796;28;20051;-55
2023/12/05 04:56:53;;;;;;;4.87;2.93;;;;;;;;;;5116284;28;20067;-54
2023/12/05 04:59:19;;;;;;;4.07;2.50;;;;;;;;;;5115266;28;20036;-53
2023/12/05 05:01:45;;;;;;;3.33;2.40;;;;;;;;;;5097374;28;20038;-54
2023/12/05 05:04:11;;;;;;;3.33;2.47;;;;;;;;;;5115674;28;20426;-55
2023/12/05 05:06:37;;;;;;;5.37;2.60;;;;;;;;;;5115328;28;20016;-55
2023/12/05 05:09:03;;;;;;;3.03;2.20;;;;;;;;;;5116091;28;20354;-54
2023/12/05 05:11:29;;;;;;;4.93;2.97;;;;;;;;;;5115464;28;20020;-55
2023/12/05 05:13:54;;;;;;;3.88;2.20;;;;;;;;;;5115443;28;20082;-55
2023/12/05 05:16:20;;;;;;;6.13;2.73;;;;;;;;;;5115336;28;20031;-52
2023/12/05 05:18:47;;;;;;;4.10;2.57;;;;;;;;;;5115284;28;20031;-56
2023/12/05 05:21:13;;;;;;;3.23;1.93;;;;;;;;;;5115320;28;20358;-54
2023/12/05 05:23:39;;;;;;;4.83;2.67;;;;;;;;;;5115175;28;20026;-55
2023/12/05 05:26:05;;;;;;;4.13;3.20;;;;;;;;;;5115158;28;20450;-56
2023/12/05 05:28:31;;;;;;;3.67;2.33;;;;;;;;;;5115964;28;20069;-52
2023/12/05 05:30:58;;;;;;;4.53;3.13;;;;;;;;;;5115070;28;20020;-54
2023/12/05 05:33:24;;;;;;;4.75;3.38;;;;;;;;;;5115593;28;20024;-52
2023/12/05 05:35:50;;;;;;;4.38;2.63;;;;;;;;;;5114995;28;20181;-55
2023/12/05 05:38:16;;;;;;;5.60;3.28;;;;;;;;;;5114899;28;20059;-56
2023/12/05 05:40:42;;;;;;;4.93;3.03;;;;;;;;;;5115673;28;20160;-56
2023/12/05 05:43:08;;;;;;;5.40;3.25;;;;;;;;;;5114577;28;20431;-54
2023/12/05 05:45:34;;;;;;;5.07;3.17;;;;;;;;;;5114581;28;20047;-54
2023/12/05 05:48:00;;;;;;;5.10;2.70;;;;;;;;;;5114955;28;20125;-50
2023/12/05 05:50:26;;;;;;;4.87;3.20;;;;;;;;;;5115163;28;20417;-54
2023/12/05 05:52:52;;;;;;;3.77;2.43;;;;;;;;;;5115184;28;20465;-56
2023/12/05 05:55:18;;;;;;;4.50;2.80;;;;;;;;;;5114140;28;20170;-53
2023/12/05 05:57:44;;;;;;;7.83;3.07;;;;;;;;;;5113955;28;20031;-56
2023/12/05 06:00:11;;;;;;;5.10;2.85;;;;;;;;;;5114322;28;20060;-56
2023/12/05 06:02:37;;;;;;;5.20;3.17;;;;;;;;;;5114649;28;20031;-57
2023/12/05 06:05:04;;;;;;;4.40;2.27;;;;;;;;;;5114410;28;20121;-56
2023/12/05 06:07:30;;;;;;;4.80;2.73;;;;;;;;;;5114625;28;20377;-57
2023/12/05 06:09:56;;;;;;;5.30;3.00;;;;;;;;;;5114046;28;20476;-56
2023/12/05 06:12:22;;;;;;;3.03;2.50;;;;;;;;;;5114393;28;20062;-57
2023/12/05 06:14:49;;;;;;;3.67;2.53;;;;;;;;;;5114898;28;20114;-57
2023/12/05 06:17:15;;;;;;;3.60;2.50;;;;;;;;;;5114484;28;20034;-56
2023/12/05 06:19:41;;;;;;;4.00;2.60;;;;;;;;;;5114460;28;20077;-57
2023/12/05 06:22:07;;;;;;;4.07;2.87;;;;;;;;;;5114666;28;20031;-58
2023/12/05 06:24:33;;;;;;;4.20;2.80;;;;;;;;;;5114740;28;20107;-58
2023/12/05 06:26:59;;;;;;;3.17;2.33;;;;;;;;;;5115109;28;20023;-56
2023/12/05 06:29:25;;;;;;;6.17;2.83;;;;;;;;;;5114692;28;20034;-58
2023/12/05 06:31:51;;;;;;;3.23;2.60;;;;;;;;;;5114938;28;20433;-57
2023/12/05 06:34:17;;;;;;;3.67;2.20;;;;;;;;;;5114188;28;20510;-56
2023/12/05 06:36:43;;;;;;;3.43;2.13;;;;;;;;;;5114692;28;20019;-58
2023/12/05 06:39:09;;;;;;;3.80;2.13;;;;;;;;;;5114603;28;20070;-58
2023/12/05 06:41:36;;;;;;;5.60;3.07;;;;;;;;;;5113326;28;20044;-59
2023/12/05 06:44:05;;;;;;;3.57;1.97;;;;;;;;;;5114111;28;20347;-57
2023/12/05 06:46:31;;;;;;;4.20;2.83;;;;;;;;;;5113704;28;20081;-55
2023/12/05 06:48:58;;;;;;;4.90;2.47;;;;;;;;;;5114600;28;20032;-56
2023/12/05 06:51:24;;;;;;;4.07;2.60;;;;;;;;;;5114326;28;20411;-56
2023/12/05 06:53:50;;;;;;;3.37;2.10;;;;;;;;;;5113760;28;20024;-56
2023/12/05 06:56:17;;;;;;;5.10;2.43;;;;;;;;;;5114202;28;20089;-56
2023/12/05 06:58:42;;;;;;;3.77;2.43;;;;;;;;;;5113875;28;20040;-57
2023/12/05 07:01:09;;;;;;;5.77;3.17;;;;;;;;;;5113465;28;20358;-57
2023/12/05 07:03:34;;;;;;;5.17;2.30;;;;;;;;;;5114246;28;20472;-57
2023/12/05 07:06:00;;;;;;;3.87;2.40;;;;;;;;;;5114356;28;20028;-57
2023/12/05 07:08:26;;;;;;;4.33;2.63;;;;;;;;;;5116764;28;20054;-56
2023/12/05 07:10:52;;;;;;;4.37;2.30;;;;;;;;;;5099571;28;20080;-57
2023/12/05 07:13:22;;;;;;;4.30;2.40;;;;;;;;;;5118536;28;20068;-55
2023/12/05 07:15:47;;;;;;;4.00;2.43;;;;;;;;;;5117720;28;20065;-57
2023/12/05 07:18:13;;;;;;;3.77;2.40;;;;;;;;;;5117701;28;20062;-54
2023/12/05 07:20:39;;;;;;;4.17;2.73;;;;;;;;;;5117404;28;20036;-55
2023/12/05 07:23:05;;;;;;;3.23;2.17;;;;;;;;;;5118380;28;20386;-56
2023/12/05 07:25:31;;;;;;;7.07;2.07;;;;;;;;;;5117589;28;20019;-56
2023/12/05 07:27:57;;;;;;;3.60;2.10;;;;;;;;;;5118157;28;20035;-57
2023/12/05 07:30:23;;;;;;;4.13;2.10;;;;;;;;;;5118080;28;20377;-57
2023/12/05 07:32:49;;;;;;;3.20;2.43;;;;;;;;;;5117514;28;20031;-57
2023/12/05 07:35:15;;;;;;;3.40;1.60;;;;;;;;;;5117382;28;20034;-56
2023/12/05 07:37:41;;;;;;;4.97;1.90;;;;;;;;;;5117538;28;20055;-57
2023/12/05 07:40:07;;;;;;;4.57;2.07;;;;;;;;;;5117416;28;20032;-56
2023/12/05 07:42:33;;;;;;;3.10;2.60;;;;;;;;;;5117286;28;20114;-57
2023/12/05 07:44:59;;;;;;;6.23;2.17;;;;;;;;;;5117290;28;20063;-58
2023/12/05 07:47:25;;;;;;;3.20;2.10;;;;;;;;;;5117052;28;20028;-56
2023/12/05 07:49:51;;;;;;;8.87;2.20;;;;;;;;;;5117114;28;20026;-55
2023/12/05 07:52:18;;;;;;;4.87;2.70;;;;;;;;;;5116929;28;20019;-56
2023/12/05 07:54:44;;;;;;;2.72;2.00;;;;;;;;;;5117237;28;20032;-57
2023/12/05 07:57:10;;;;;;;6.83;2.90;;;;;;;;;;5117626;28;20056;-57
2023/12/05 07:59:36;;;;;;;4.63;2.40;;;;;;;;;;5116856;28;20027;-57
2023/12/05 08:02:02;;;;;;;3.37;1.83;;;;;;;;;;5116929;28;20027;-57
2023/12/05 08:04:28;;;;;;;4.20;2.22;;;;;;;;;;5116881;28;20055;-56
2023/12/05 08:06:54;;;;;;;3.80;2.30;;;;;;;;;;5117449;28;20020;-55
2023/12/05 08:09:19;;;;;;;4.13;2.73;;;;;;;;;;5117306;28;20115;-57
2023/12/05 08:11:46;;;;;;;4.30;2.13;;;;;;;;;;5116430;28;20499;-54
2023/12/05 08:14:12;;;;;;;4.10;2.03;;;;;;;;;;5117199;28;20023;-56
2023/12/05 08:16:39;;;;;;;3.08;1.55;;;;;;;;;;5116670;28;20020;-56
2023/12/05 08:19:05;;;;;;;3.90;2.00;;;;;;;;;;5116805;28;20118;-55
2023/12/05 08:21:31;;;;;;;2.97;1.90;;;;;;;;;;5117141;28;20046;-57
2023/12/05 08:23:57;;;;;;;3.50;1.85;;;;;;;;;;5116514;28;20023;-54
2023/12/05 08:26:23;;;;;;;3.03;1.50;;;;;;;;;;5116839;28;20031;-56
2023/12/05 08:28:49;;;;;;;3.67;2.15;;;;;;;;;;5117001;28;20035;-55
2023/12/05 08:31:15;;;;;;;4.15;1.85;;;;;;;;;;5116955;28;20330;-54
2023/12/05 08:33:41;;;;;;;4.75;2.13;;;;;;;;;;5116398;28;20034;-56
2023/12/05 08:36:08;;;;;;;1.98;1.27;;;;;;;;;;5116898;28;20076;-56
2023/12/05 08:38:34;;;;;;;6.68;2.10;;;;;;;;;;5116846;28;20365;-58
2023/12/05 08:41:00;;;;;;;5.00;1.30;;;;;;;;;;5115961;28;20027;-58
2023/12/05 08:43:26;;;;;;;3.77;1.70;;;;;;;;;;5116429;28;20023;-57
2023/12/05 08:45:52;;;;;;;6.88;1.60;;;;;;;;;;5116611;28;20061;-58
2023/12/05 08:48:17;;;;;;;2.10;1.08;;;;;;;;;;5116069;28;20027;-55
2023/12/05 08:50:43;;;;;;;3.10;0.93;;;;;;;;;;5115854;28;20030;-54
2023/12/05 08:53:09;;;;;;;2.60;1.30;;;;;;;;;;5115954;28;20118;-54
2023/12/05 08:55:35;;;;;;;1.55;0.70;;;;;;;;;;5116451;28;20047;-56
2023/12/05 08:58:01;;;;;;;2.80;1.05;;;;;;;;;;5098099;28;20039;-54
2023/12/05 09:00:27;;;;;;;1.65;0.75;;;;;;;;;;5115806;28;20042;-54
2023/12/05 09:02:55;;;;;;;1.75;0.70;;;;;;;;;;5115806;28;20023;-57
2023/12/05 09:05:21;;;;;;;2.17;0.82;;;;;;;;;;5115496;28;20032;-54
2023/12/05 09:07:47;;;;;;;1.92;0.70;;;;;;;;;;5115636;28;20115;-56
2023/12/05 09:10:13;;;;;;;1.60;0.90;;;;;;;;;;5115323;28;20023;-54
2023/12/05 09:12:39;;;;;;;2.00;0.90;;;;;;;;;;5115771;28;20062;-54
2023/12/05 09:15:05;;;;;;;3.33;1.08;;;;;;;;;;5116416;28;20038;-54
2023/12/05 09:17:32;;;;;;;2.67;1.00;;;;;;;;;;5115454;28;20396;-57
2023/12/05 09:19:58;;;;;;;2.90;1.00;;;;;;;;;;5115579;28;20103;-56
2023/12/05 09:22:24;;;;;;;2.10;1.00;;;;;;;;;;5115394;28;20027;-57
2023/12/05 09:24:50;;;;;;;3.17;1.30;;;;;;;;;;5115016;28;20457;-55
2023/12/05 09:27:16;;;;;;;2.22;0.90;;;;;;;;;;5116157;28;20361;-56
2023/12/05 09:29:42;;;;;;;2.10;0.90;;;;;;;;;;5115294;28;20060;-56
2023/12/05 09:32:07;;;;;;;2.65;1.05;;;;;;;;;;5115088;28;20023;-57
2023/12/05 09:34:33;;;;;;;5.15;1.00;;;;;;;;;;5115033;28;20471;-56
2023/12/05 09:36:59;;;;;;;3.55;1.25;;;;;;;;;;5115657;28;20030;-57
2023/12/05 09:39:25;;;;;;;1.90;0.80;;;;;;;;;;5115198;28;20034;-56
2023/12/05 09:41:53;;;;;;;6.63;1.02;;;;;;;;;;5115297;28;20441;-53
2023/12/05 09:44:22;;;;;;;2.10;0.80;;;;;;;;;;5114925;28;20035;-56
2023/12/05 09:46:51;;;;;;;2.50;0.93;;;;;;;;;;5114547;28;20465;-57
2023/12/05 09:49:18;;;;;;;1.17;0.60;;;;;;;;;;5115460;28;20063;-57
2023/12/05 09:51:44;;;;;;;2.65;1.08;;;;;;;;;;5115029;28;20140;-55
2023/12/05 09:54:11;;;;;;;1.95;0.88;;;;;;;;;;5115334;28;20127;-54
2023/12/05 09:56:37;;;;;;;2.40;0.90;;;;;;;;;;5114801;28;20054;-56
2023/12/05 09:59:03;;;;;;;2.47;0.95;;;;;;;;;;5114687;28;20062;-52
2023/12/05 10:01:30;;;;;;;1.73;0.82;;;;;;;;;;5114881;28;20032;-58
2023/12/05 10:03:58;;;;;;;2.38;0.73;;;;;;;;;;5115196;28;20107;-54
2023/12/05 10:06:28;;;;;;;2.35;0.80;;;;;;;;;;5114187;28;20023;-57
2023/12/05 10:08:55;;;;;;;1.88;0.63;;;;;;;;;;5114509;28;20477;-56
2023/12/05 10:11:23;;;;;;;2.85;1.17;;;;;;;;;;5114433;28;20031;-56
2023/12/05 10:13:49;;;;;;;2.95;0.85;;;;;;;;;;5114219;28;20189;-54
2023/12/05 10:16:17;;;;;;;2.08;0.93;;;;;;;;;;5114440;28;20055;-54
2023/12/05 10:18:45;;;;;;;1.50;0.65;;;;;;;;;;5114323;28;20122;-52
2023/12/05 10:21:10;;;;;;;4.13;1.15;;;;;;;;;;5114827;28;20032;-55
2023/12/05 10:23:37;;;;;;;1.67;0.70;;;;;;;;;;5114374;28;20019;-55
2023/12/05 10:26:03;;;;;;;1.42;0.80;;;;;;;;;;5114369;28;20032;-55
2023/12/05 10:28:29;;;;;;;3.67;0.63;;;;;;;;;;5114635;28;20059;-56
2023/12/05 10:30:56;;;;;;;1.42;0.80;;;;;;;;;;5115043;28;20442;-52
2023/12/05 10:33:22;;;;;;;4.60;1.08;;;;;;;;;;5114206;28;20027;-53
2023/12/05 10:35:48;;;;;;;1.77;1.05;;;;;;;;;;5115070;28;20028;-56
2023/12/05 10:38:14;;;;;;;1.35;0.70;;;;;;;;;;5114729;28;20028;-55
2023/12/05 10:40:49;;;;;;;3.88;1.10;;;;;;;;;;5114107;28;20587;-54
2023/12/05 10:43:15;;;;;;;1.83;0.90;;;;;;;;;;5116876;28;20077;-54
2023/12/05 10:45:41;;;;;;;3.33;1.05;;;;;;;;;;5118421;28;20119;-55
2023/12/05 10:48:07;;;;;;;1.60;1.02;;;;;;;;;;5118391;28;20417;-56
2023/12/05 10:50:35;;;;;;;0.77;0.38;;;;;;;;;;5118416;28;20103;-55
2023/12/05 10:53:00;;;;;;;2.33;0.98;;;;;;;;;;5118554;28;20038;-54
2023/12/05 10:55:26;;;;;;;1.88;0.70;;;;;;;;;;5117970;28;20048;-55
2023/12/05 10:57:52;;;;;;;2.65;0.93;;;;;;;;;;5118421;28;20051;-57
2023/12/05 11:00:19;;;;;;;3.50;0.70;;;;;;;;;;5118684;28;20023;-52
2023/12/05 11:02:45;;;;;;;1.77;0.68;;;;;;;;;;5118081;28;20358;-57
2023/12/05 11:05:13;;;;;;;1.45;0.43;;;;;;;;;;5118180;28;20050;-53
2023/12/05 11:07:39;;;;;;;1.35;0.55;;;;;;;;;;5118279;28;20420;-56
2023/12/05 11:10:06;;;;;;;2.00;0.63;;;;;;;;;;5118469;28;20024;-57
2023/12/05 11:12:33;;;;;;;1.98;0.75;;;;;;;;;;5117701;28;20051;-52
2023/12/05 11:14:59;;;;;;;0.65;0.40;;;;;;;;;;5118407;28;20032;-55
2023/12/05 11:17:28;;;;;;;4.53;0.82;;;;;;;;;;5118390;28;20358;-56
2023/12/05 11:20:16;;;;;;;7.35;0.98;;;;;;;;;;5117676;28;20035;-53
2023/12/05 11:22:51;;;;;;;2.85;1.05;;;;;;;;;;5117712;28;20030;-51
2023/12/05 11:25:28;;;;;;;8.15;0.95;;;;;;;;;;5117389;28;20028;-55
2023/12/05 11:28:08;;;;;;;3.63;0.70;;;;;;;;;;5117696;28;20031;-53
2023/12/05 11:30:43;;;;;;;1.73;0.45;;;;;;;;;;5118174;28;20081;-52
2023/12/05 11:33:21;;;;;;;6.55;0.85;;;;;;;;;;5117452;28;20035;-50
2023/12/05 11:35:59;;;;;;;1.10;0.50;;;;;;;;;;5118060;28;20099;-55
2023/12/05 11:38:26;;;;;;;0.65;0.40;;;;;;;;;;5117667;28;20036;-53
2023/12/05 11:41:11;;;;;;;2.97;0.57;;;;;;;;;;5117817;28;20032;-52
2023/12/05 11:43:37;;;;;;;0.60;0.43;;;;;;;;;;5116927;28;20024;-51
2023/12/05 11:46:03;;;;;;;3.15;1.00;;;;;;;;;;5117282;28;20058;-53
2023/12/05 11:48:33;;;;;;;1.63;0.60;;;;;;;;;;5117938;28;20361;-53
2023/12/05 11:50:59;;;;;;;1.27;0.57;;;;;;;;;;5117071;28;20028;-56
2023/12/05 11:53:25;;;;;;;2.42;0.73;;;;;;;;;;5117284;28;20536;-52
2023/12/05 11:55:51;;;;;;;1.10;0.70;;;;;;;;;;5117024;28;20427;-54
2023/12/05 11:58:29;;;;;;;3.90;0.82;;;;;;;;;;5117033;28;20032;-55
2023/12/05 12:01:02;;;;;;;3.83;0.70;;;;;;;;;;5117270;28;20457;-54
2023/12/05 12:03:28;;;;;;;13.68;2.17;;;;;;;;;;5117487;28;20023;-54
2023/12/05 12:06:02;;;;;;;1.73;0.50;;;;;;;;;;5117167;28;20512;-53
2023/12/05 12:08:28;;;;;;;1.95;0.77;;;;;;;;;;5117121;28;20034;-52
2023/12/05 12:10:56;;;;;;;0.90;0.40;;;;;;;;;;5117298;28;20034;-56
2023/12/05 12:13:22;;;;;;;2.72;0.52;;;;;;;;;;5116606;28;20489;-50
2023/12/05 12:15:48;;;;;;;1.33;0.68;;;;;;;;;;5116765;28;20035;-55
2023/12/05 12:18:14;;;;;;;2.60;0.73;;;;;;;;;;5117312;28;20084;-52
2023/12/05 12:20:40;;;;;;;1.20;0.70;;;;;;;;;;5116933;28;20020;-52
2023/12/05 12:23:05;;;;;;;4.18;0.82;;;;;;;;;;5116503;28;20038;-54
2023/12/05 12:25:31;;;;;;;2.25;0.88;;;;;;;;;;5116548;28;20023;-55
2023/12/05 12:27:57;;;;;;;2.03;0.80;;;;;;;;;;5117060;28;20106;-53
2023/12/05 12:30:24;;;;;;;1.75;0.77;;;;;;;;;;5116451;28;20030;-55
2023/12/05 12:32:53;;;;;;;2.38;0.88;;;;;;;;;;5116213;28;20031;-53
2023/12/05 12:35:22;;;;;;;2.50;0.80;;;;;;;;;;5097858;28;20023;-55
2023/12/05 12:37:48;;;;;;;2.97;0.65;;;;;;;;;;5116761;28;20416;-53
2023/12/05 12:40:14;;;;;;;1.88;0.63;;;;;;;;;;5115937;28;20069;-55
2023/12/05 12:42:42;;;;;;;2.08;0.70;;;;;;;;;;5116461;28;20023;-53
2023/12/05 12:45:08;;;;;;;1.35;0.55;;;;;;;;;;5116952;28;20123;-56
2023/12/05 12:47:34;;;;;;;1.20;0.50;;;;;;;;;;5116395;28;20024;-56
2023/12/05 12:50:00;;;;;;;1.80;0.70;;;;;;;;;;5116243;28;20028;-54
2023/12/05 12:52:26;;;;;;;1.52;0.68;;;;;;;;;;5115857;28;20426;-53
2023/12/05 12:54:52;;;;;;;1.35;0.40;;;;;;;;;;5115442;28;20076;-55
2023/12/05 12:57:21;;;;;;;1.17;0.65;;;;;;;;;;5116318;28;20024;-55
2023/12/05 12:59:47;;;;;;;2.22;0.65;;;;;;;;;;5116567;28;20036;-56
2023/12/05 13:02:13;;;;;;;1.35;0.57;;;;;;;;;;5116340;28;20031;-53
2023/12/05 13:04:39;;;;;;;1.48;0.55;;;;;;;;;;5115042;28;20457;-55
2023/12/05 13:07:05;;;;;;;1.30;0.60;;;;;;;;;;5116474;28;20468;-56
2023/12/05 13:09:32;;;;;;;4.63;0.80;;;;;;;;;;5116093;28;20032;-56
2023/12/05 13:11:58;;;;;;;3.55;0.73;;;;;;;;;;5115552;28;20111;-57
2023/12/05 13:14:25;;;;;;;0.90;0.47;;;;;;;;;;5115613;28;20062;-54
2023/12/05 13:16:51;;;;;;;4.47;0.80;;;;;;;;;;5115733;28;20031;-54
2023/12/05 13:19:23;;;;;;;2.90;0.85;;;;;;;;;;5115113;28;20126;-54
2023/12/05 13:21:49;;;;;;;0.90;0.43;;;;;;;;;;5115316;28;20073;-56
2023/12/05 13:24:16;;;;;;;1.40;0.70;;;;;;;;;;5116134;28;20023;-54
2023/12/05 13:26:42;;;;;;;2.83;1.10;;;;;;;;;;5115301;28;20115;-56
2023/12/05 13:29:08;;;;;;;1.65;0.70;;;;;;;;;;5115890;28;20063;-57
2023/12/05 13:31:35;;;;;;;1.17;0.50;;;;;;;;;;5115710;28;20024;-56
2023/12/05 13:34:01;;;;;;;0.82;0.50;;;;;;;;;;5115705;28;20024;-53
2023/12/05 13:36:27;;;;;;;3.33;0.50;;;;;;;;;;5115278;28;20031;-54
2023/12/05 13:38:55;;;;;;;1.70;0.80;;;;;;;;;;5115386;28;20039;-55
2023/12/05 13:41:21;;;;;;;2.10;0.57;;;;;;;;;;5115425;28;20020;-54
2023/12/05 13:43:47;;;;;;;1.90;0.50;;;;;;;;;;5114950;28;20019;-56
2023/12/05 13:46:14;;;;;;;2.22;0.75;;;;;;;;;;5114696;28;20473;-56
2023/12/05 13:48:41;;;;;;;1.83;1.00;;;;;;;;;;5115534;28;20032;-57
2023/12/05 13:51:08;;;;;;;1.60;0.70;;;;;;;;;;5114854;28;20020;-55
2023/12/05 13:53:34;;;;;;;1.35;0.70;;;;;;;;;;5114837;28;20019;-54
2023/12/05 13:56:00;;;;;;;1.63;0.47;;;;;;;;;;5114622;28;20485;-55
2023/12/05 13:58:25;;;;;;;1.25;0.55;;;;;;;;;;5114700;28;20036;-56
2023/12/05 14:00:51;;;;;;;1.52;0.55;;;;;;;;;;5114852;28;20392;-56
2023/12/05 14:03:17;;;;;;;3.28;0.80;;;;;;;;;;5114837;28;20377;-56
2023/12/05 14:05:43;;;;;;;1.75;0.77;;;;;;;;;;5114580;28;20027;-56
2023/12/05 14:08:09;;;;;;;1.30;0.70;;;;;;;;;;5115229;28;20027;-53
2023/12/05 14:10:37;;;;;;;5.07;0.88;;;;;;;;;;5114605;28;20434;-54
2023/12/05 14:13:03;;;;;;;1.58;0.80;;;;;;;;;;5114490;28;20114;-57
2023/12/05 14:15:29;;;;;;;1.27;0.38;;;;;;;;;;5114143;28;20149;-54
2023/12/05 14:17:55;;;;;;;18.67;3.00;;;;;;;;;;5114233;28;20070;-57
2023/12/05 14:20:21;;;;;;;1.20;0.60;;;;;;;;;;5114296;28;20024;-57
2023/12/05 14:22:47;;;;;;;2.95;0.90;;;;;;;;;;5113890;28;20555;-56
2023/12/05 14:25:13;;;;;;;1.75;0.80;;;;;;;;;;5114247;28;20034;-54
2023/12/05 14:27:39;;;;;;;4.38;0.95;;;;;;;;;;5114007;28;20468;-54
2023/12/05 14:30:06;;;;;;;0.47;0.32;;;;;;;;;;5114220;28;20036;-57
2023/12/05 14:32:32;;;;;;;1.58;0.77;;;;;;;;;;5114494;28;20476;-57
2023/12/05 14:34:58;;;;;;;1.67;0.57;;;;;;;;;;5114380;28;20031;-57
2023/12/05 14:37:24;;;;;;;2.08;0.80;;;;;;;;;;5114870;28;20507;-57
2023/12/05 14:39:50;;;;;;;2.88;1.08;;;;;;;;;;5114101;28;20031;-55